ENY3372 KXNA-KORD
Flight info
| Callsign | ENY3372 |
|---|---|
| Flight time | N/A |
| Altitude | 35000 |
| Route | EOS SGF WELTS TRTLL6 |
| Aircraft | E175/M-SDE3GILORVW/S |
Departure
| Time | 2026-05-06 19:04 |
|---|---|
| Airport | Northwest Arkansas National Airport (KXNA) |
Arrival
| Time | N/A |
|---|---|
| Airport | Chicago O'Hare International Airport (KORD) |
| Time | Latitude | Longitude | Altitude | Speed | Heading |
|---|---|---|---|---|---|
| 2026-05-06 18:05 | 36.27640 | -94.29717 | 1277 ft | 0 kts | 174° |
| 2026-05-06 18:06 | 36.27651 | -94.29555 | 1277 ft | 0 kts | 250° |
| 2026-05-06 18:47 | 36.27653 | -94.29549 | 1278 ft | 4 kts | 248° |
| 2026-05-06 18:47 | 36.27664 | -94.29520 | 1277 ft | 4 kts | 236° |
| 2026-05-06 18:47 | 36.27681 | -94.29493 | 1277 ft | 4 kts | 231° |
| 2026-05-06 18:47 | 36.27693 | -94.29470 | 1277 ft | 4 kts | 286° |
| 2026-05-06 18:48 | 36.27694 | -94.29467 | 1277 ft | 1 kts | 340° |
| 2026-05-06 18:48 | 36.27692 | -94.29467 | 1277 ft | 0 kts | 340° |
| 2026-05-06 18:56 | 36.27701 | -94.29471 | 1279 ft | 4 kts | 339° |
| 2026-05-06 18:56 | 36.27741 | -94.29491 | 1277 ft | 9 kts | 335° |
| 2026-05-06 18:56 | 36.27776 | -94.29516 | 1277 ft | 11 kts | 325° |
| 2026-05-06 18:57 | 36.27806 | -94.29598 | 1277 ft | 10 kts | 262° |
| 2026-05-06 18:57 | 36.27803 | -94.29661 | 1277 ft | 12 kts | 269° |
| 2026-05-06 18:57 | 36.27801 | -94.29763 | 1276 ft | 10 kts | 246° |
| 2026-05-06 18:57 | 36.27765 | -94.29840 | 1278 ft | 7 kts | 250° |
| 2026-05-06 18:58 | 36.27758 | -94.29859 | 1277 ft | 1 kts | 242° |
| 2026-05-06 18:58 | 36.27743 | -94.29890 | 1277 ft | 11 kts | 238° |
| 2026-05-06 18:58 | 36.27703 | -94.29972 | 1277 ft | 1 kts | 246° |
| 2026-05-06 18:58 | 36.27685 | -94.30029 | 1277 ft | 12 kts | 251° |
| 2026-05-06 18:59 | 36.27670 | -94.30082 | 1277 ft | 3 kts | 252° |
| 2026-05-06 18:59 | 36.27658 | -94.30127 | 1277 ft | 0 kts | 251° |
| 2026-05-06 18:59 | 36.27653 | -94.30148 | 1277 ft | 4 kts | 251° |
| 2026-05-06 18:59 | 36.27627 | -94.30194 | 1275 ft | 0 kts | 203° |
| 2026-05-06 19:00 | 36.27595 | -94.30210 | 1275 ft | 7 kts | 199° |
| 2026-05-06 19:00 | 36.27570 | -94.30215 | 1275 ft | 0 kts | 180° |
| 2026-05-06 19:00 | 36.27524 | -94.30205 | 1275 ft | 10 kts | 159° |
| 2026-05-06 19:00 | 36.27441 | -94.30158 | 1276 ft | 16 kts | 138° |
| 2026-05-06 19:01 | 36.27331 | -94.30075 | 1275 ft | 0 kts | 158° |
| 2026-05-06 19:01 | 36.27298 | -94.30060 | 1275 ft | 12 kts | 160° |
| 2026-05-06 19:01 | 36.27210 | -94.30016 | 1266 ft | 9 kts | 160° |
| 2026-05-06 19:01 | 36.27177 | -94.30002 | 1275 ft | 9 kts | 161° |
| 2026-05-06 19:02 | 36.27148 | -94.29994 | 1275 ft | 7 kts | 171° |
| 2026-05-06 19:02 | 36.27133 | -94.29992 | 1275 ft | 3 kts | 179° |
| 2026-05-06 19:02 | 36.27104 | -94.30025 | 1275 ft | 10 kts | 253° |
| 2026-05-06 19:02 | 36.27092 | -94.30078 | 1276 ft | 13 kts | 257° |
| 2026-05-06 19:03 | 36.27085 | -94.30164 | 1273 ft | 2 kts | 295° |
| 2026-05-06 19:03 | 36.27131 | -94.30202 | 1273 ft | 15 kts | 340° |
| 2026-05-06 19:03 | 36.27446 | -94.30331 | 1276 ft | 92 kts | 343° |
| 2026-05-06 19:03 | 36.28268 | -94.30775 | 1460 ft | 153 kts | 339° |
| 2026-05-06 19:04 | 36.29253 | -94.31332 | 2273 ft | 155 kts | 341° |
| 2026-05-06 19:04 | 36.30283 | -94.31931 | 2689 ft | 172 kts | 338° |
| 2026-05-06 19:04 | 36.31365 | -94.32583 | 3290 ft | 177 kts | 338° |
| 2026-05-06 19:04 | 36.32399 | -94.33173 | 4059 ft | 179 kts | 340° |
| 2026-05-06 19:05 | 36.33492 | -94.33772 | 5110 ft | 167 kts | 340° |
| 2026-05-06 19:05 | 36.34570 | -94.34373 | 5784 ft | 178 kts | 337° |
| 2026-05-06 19:05 | 36.35733 | -94.35099 | 6408 ft | 190 kts | 330° |
| 2026-05-06 19:05 | 36.36834 | -94.35946 | 7033 ft | 202 kts | 323° |
| 2026-05-06 19:06 | 36.37820 | -94.37511 | 6722 ft | 258 kts | 295° |
| 2026-05-06 19:06 | 36.38532 | -94.39765 | 6661 ft | 296 kts | 290° |
| 2026-05-06 19:06 | 36.39538 | -94.42127 | 6597 ft | 326 kts | 310° |
| 2026-05-06 19:06 | 36.41361 | -94.43724 | 7292 ft | 323 kts | 336° |
| 2026-05-06 19:07 | 36.43591 | -94.44260 | 7637 ft | 341 kts | 1° |
| 2026-05-06 19:07 | 36.45172 | -94.43904 | 8170 ft | 344 kts | 13° |
| 2026-05-06 19:07 | 36.47873 | -94.41736 | 8698 ft | 363 kts | 45° |
| 2026-05-06 19:07 | 36.49194 | -94.39011 | 9145 ft | 371 kts | 69° |
| 2026-05-06 19:08 | 36.50081 | -94.36005 | 10173 ft | 362 kts | 69° |
| 2026-05-06 19:08 | 36.50964 | -94.33116 | 11105 ft | 355 kts | 68° |
| 2026-05-06 19:08 | 36.51797 | -94.30455 | 11997 ft | 347 kts | 67° |
| 2026-05-06 19:08 | 36.52683 | -94.27663 | 12964 ft | 338 kts | 66° |
| 2026-05-06 19:09 | 36.53548 | -94.24968 | 13939 ft | 328 kts | 66° |
| 2026-05-06 19:09 | 36.54398 | -94.22348 | 14649 ft | 327 kts | 66° |
| 2026-05-06 19:09 | 36.55294 | -94.19632 | 14808 ft | 347 kts | 66° |
| 2026-05-06 19:09 | 36.56228 | -94.16839 | 14979 ft | 365 kts | 66° |
| 2026-05-06 19:10 | 36.57245 | -94.13827 | 15184 ft | 381 kts | 65° |
| 2026-05-06 19:10 | 36.58301 | -94.10739 | 15384 ft | 394 kts | 65° |
| 2026-05-06 19:10 | 36.59418 | -94.07507 | 15595 ft | 407 kts | 65° |
| 2026-05-06 19:10 | 36.60221 | -94.05381 | 15720 ft | 412 kts | 58° |
| 2026-05-06 19:11 | 36.61968 | -94.02365 | 15916 ft | 418 kts | 45° |
| 2026-05-06 19:11 | 36.63959 | -93.99713 | 16117 ft | 423 kts | 39° |
| 2026-05-06 19:11 | 36.65412 | -93.97997 | 16245 ft | 427 kts | 37° |
| 2026-05-06 19:11 | 36.67650 | -93.95488 | 16437 ft | 433 kts | 36° |
| 2026-05-06 19:12 | 36.69922 | -93.93024 | 16620 ft | 437 kts | 33° |
| 2026-05-06 19:12 | 36.72354 | -93.90748 | 16802 ft | 440 kts | 30° |
| 2026-05-06 19:12 | 36.74716 | -93.88586 | 16967 ft | 444 kts | 29° |
| 2026-05-06 19:12 | 36.77121 | -93.86420 | 17147 ft | 447 kts | 29° |
| 2026-05-06 19:13 | 36.79611 | -93.84177 | 17325 ft | 450 kts | 29° |
| 2026-05-06 19:13 | 36.81973 | -93.82048 | 17501 ft | 453 kts | 29° |
| 2026-05-06 19:13 | 36.84523 | -93.79748 | 17688 ft | 455 kts | 29° |
| 2026-05-06 19:13 | 36.86820 | -93.77675 | 17867 ft | 457 kts | 29° |
| 2026-05-06 19:14 | 36.89423 | -93.75322 | 17988 ft | 459 kts | 29° |
| 2026-05-06 19:14 | 36.92006 | -93.72985 | 18141 ft | 459 kts | 29° |
| 2026-05-06 19:14 | 36.94558 | -93.70675 | 18315 ft | 459 kts | 29° |
| 2026-05-06 19:14 | 36.97150 | -93.68327 | 18476 ft | 459 kts | 29° |
| 2026-05-06 19:15 | 36.99747 | -93.65972 | 18652 ft | 459 kts | 29° |
| 2026-05-06 19:15 | 37.02306 | -93.63649 | 18801 ft | 458 kts | 29° |
| 2026-05-06 19:15 | 37.04915 | -93.61279 | 18971 ft | 457 kts | 28° |
| 2026-05-06 19:15 | 37.07471 | -93.58955 | 19135 ft | 456 kts | 28° |
| 2026-05-06 19:16 | 37.10052 | -93.56606 | 19298 ft | 456 kts | 28° |
| 2026-05-06 19:16 | 37.12607 | -93.54279 | 19461 ft | 455 kts | 28° |
| 2026-05-06 19:16 | 37.15158 | -93.51953 | 19643 ft | 454 kts | 28° |
| 2026-05-06 19:16 | 37.17712 | -93.49623 | 19804 ft | 454 kts | 28° |
| 2026-05-06 19:17 | 37.20231 | -93.47322 | 19972 ft | 453 kts | 28° |
| 2026-05-06 19:17 | 37.22724 | -93.45044 | 20143 ft | 453 kts | 28° |
| 2026-05-06 19:17 | 37.25275 | -93.42711 | 20315 ft | 452 kts | 28° |
| 2026-05-06 19:17 | 37.27818 | -93.40383 | 20484 ft | 452 kts | 28° |
| 2026-05-06 19:18 | 37.30349 | -93.38064 | 20670 ft | 451 kts | 28° |
| 2026-05-06 19:18 | 37.32869 | -93.35753 | 20841 ft | 451 kts | 28° |
| 2026-05-06 19:18 | 37.35410 | -93.33422 | 21015 ft | 451 kts | 28° |
| 2026-05-06 19:18 | 37.37960 | -93.31078 | 21199 ft | 450 kts | 28° |
| 2026-05-06 19:19 | 37.40456 | -93.28784 | 21370 ft | 450 kts | 28° |
| 2026-05-06 19:19 | 37.42981 | -93.26459 | 21554 ft | 449 kts | 28° |
| 2026-05-06 19:19 | 37.45525 | -93.24117 | 21740 ft | 449 kts | 28° |
| 2026-05-06 19:19 | 37.47742 | -93.22073 | 21894 ft | 449 kts | 28° |
| 2026-05-06 19:20 | 37.50298 | -93.19715 | 22084 ft | 448 kts | 28° |
| 2026-05-06 19:20 | 37.52784 | -93.17420 | 22268 ft | 448 kts | 28° |
| 2026-05-06 19:20 | 37.55302 | -93.15093 | 22461 ft | 447 kts | 28° |
| 2026-05-06 19:20 | 37.57820 | -93.12764 | 22646 ft | 446 kts | 27° |
| 2026-05-06 19:21 | 37.60295 | -93.10474 | 22832 ft | 446 kts | 27° |
| 2026-05-06 19:21 | 37.62824 | -93.08130 | 23024 ft | 445 kts | 27° |
| 2026-05-06 19:21 | 37.65282 | -93.05852 | 23208 ft | 444 kts | 27° |
| 2026-05-06 19:21 | 37.67799 | -93.03516 | 23399 ft | 443 kts | 27° |
| 2026-05-06 19:22 | 37.69845 | -93.01616 | 23562 ft | 443 kts | 27° |
| 2026-05-06 19:22 | 37.72304 | -92.99330 | 23746 ft | 442 kts | 27° |
| 2026-05-06 19:22 | 37.74785 | -92.97021 | 23905 ft | 441 kts | 27° |
| 2026-05-06 19:22 | 37.77267 | -92.94711 | 24069 ft | 440 kts | 27° |
| 2026-05-06 19:23 | 37.79743 | -92.92404 | 24225 ft | 439 kts | 27° |
| 2026-05-06 19:23 | 37.82206 | -92.90106 | 24389 ft | 437 kts | 27° |
| 2026-05-06 19:23 | 37.84638 | -92.87837 | 24553 ft | 436 kts | 27° |
| 2026-05-06 19:23 | 37.87124 | -92.85514 | 24723 ft | 435 kts | 27° |
| 2026-05-06 19:24 | 37.89528 | -92.83266 | 24888 ft | 434 kts | 26° |
| 2026-05-06 19:24 | 37.92053 | -92.80903 | 25067 ft | 432 kts | 26° |
| 2026-05-06 19:24 | 37.94543 | -92.78572 | 25234 ft | 431 kts | 26° |
| 2026-05-06 19:24 | 37.96939 | -92.76325 | 25404 ft | 429 kts | 26° |
| 2026-05-06 19:25 | 37.99347 | -92.74067 | 25571 ft | 428 kts | 26° |
| 2026-05-06 19:25 | 38.01712 | -92.71846 | 25740 ft | 426 kts | 26° |
| 2026-05-06 19:25 | 38.04110 | -92.69593 | 25904 ft | 425 kts | 26° |
| 2026-05-06 19:25 | 38.06481 | -92.67363 | 26068 ft | 423 kts | 26° |
| 2026-05-06 19:26 | 38.08713 | -92.65262 | 26232 ft | 421 kts | 25° |
| 2026-05-06 19:26 | 38.11048 | -92.63062 | 26401 ft | 419 kts | 25° |
| 2026-05-06 19:26 | 38.13372 | -92.60871 | 26563 ft | 417 kts | 25° |
| 2026-05-06 19:26 | 38.15711 | -92.58664 | 26742 ft | 415 kts | 25° |
| 2026-05-06 19:27 | 38.18026 | -92.56478 | 26908 ft | 413 kts | 24° |
| 2026-05-06 19:27 | 38.20321 | -92.54311 | 27078 ft | 410 kts | 24° |
| 2026-05-06 19:27 | 38.22637 | -92.52118 | 27244 ft | 408 kts | 24° |
| 2026-05-06 19:27 | 38.24868 | -92.50007 | 27410 ft | 405 kts | 24° |
| 2026-05-06 19:28 | 38.27129 | -92.47865 | 27587 ft | 402 kts | 24° |
| 2026-05-06 19:28 | 38.29395 | -92.45716 | 27750 ft | 399 kts | 24° |
| 2026-05-06 19:28 | 38.31580 | -92.43642 | 27914 ft | 396 kts | 23° |
| 2026-05-06 19:28 | 38.33802 | -92.41533 | 28082 ft | 392 kts | 23° |
| 2026-05-06 19:29 | 38.35956 | -92.39486 | 28249 ft | 388 kts | 22° |
| 2026-05-06 19:29 | 38.38128 | -92.37420 | 28384 ft | 383 kts | 22° |
| 2026-05-06 19:29 | 38.40255 | -92.35397 | 28534 ft | 380 kts | 22° |
| 2026-05-06 19:30 | 38.44095 | -92.31738 | 28713 ft | 373 kts | 21° |
| 2026-05-06 19:30 | 38.48051 | -92.27963 | 28881 ft | 366 kts | 21° |
| 2026-05-06 19:31 | 38.52122 | -92.24086 | 29125 ft | 372 kts | 21° |
| 2026-05-06 19:31 | 38.54202 | -92.22091 | 29281 ft | 376 kts | 21° |
| 2026-05-06 19:31 | 38.58452 | -92.18017 | 29618 ft | 385 kts | 21° |
| 2026-05-06 19:32 | 38.60668 | -92.15892 | 29812 ft | 389 kts | 21° |
| 2026-05-06 19:32 | 38.62868 | -92.13780 | 30050 ft | 392 kts | 21° |
| 2026-05-06 19:32 | 38.64336 | -92.12370 | 30205 ft | 394 kts | 21° |
| 2026-05-06 19:32 | 38.67268 | -92.09555 | 30457 ft | 398 kts | 21° |
| 2026-05-06 19:33 | 38.69478 | -92.07429 | 30634 ft | 401 kts | 21° |
| 2026-05-06 19:33 | 38.71739 | -92.05253 | 30819 ft | 403 kts | 21° |
| 2026-05-06 19:33 | 38.73230 | -92.03817 | 30923 ft | 405 kts | 21° |
| 2026-05-06 19:33 | 38.75483 | -92.01645 | 31114 ft | 408 kts | 22° |
| 2026-05-06 19:34 | 38.77767 | -91.99442 | 31303 ft | 411 kts | 22° |
| 2026-05-06 19:34 | 38.80061 | -91.97227 | 31495 ft | 414 kts | 22° |
| 2026-05-06 19:34 | 38.83123 | -91.94269 | 31743 ft | 418 kts | 22° |
| 2026-05-06 19:34 | 38.84692 | -91.92752 | 31869 ft | 420 kts | 22° |
| 2026-05-06 19:35 | 38.87029 | -91.90490 | 32053 ft | 422 kts | 22° |
| 2026-05-06 19:35 | 38.89385 | -91.88208 | 32254 ft | 425 kts | 22° |
| 2026-05-06 19:35 | 38.91737 | -91.85928 | 32449 ft | 427 kts | 22° |
| 2026-05-06 19:35 | 38.94136 | -91.83600 | 32652 ft | 430 kts | 22° |
| 2026-05-06 19:36 | 38.96510 | -91.81295 | 32846 ft | 432 kts | 22° |
| 2026-05-06 19:36 | 38.98884 | -91.78857 | 33040 ft | 442 kts | 28° |